createdAt,value
2018-11-29T00:00:23.760Z,45.48
2018-11-29T00:02:53.516Z,46.35
2018-11-29T00:05:22.251Z,56.35
2018-11-29T00:07:50.987Z,40.10
2018-11-29T00:10:19.739Z,45.38
2018-11-29T00:12:48.450Z,42.43
2018-11-29T00:15:17.324Z,44.77
2018-11-29T00:17:46.019Z,41.68
2018-11-29T00:20:15.647Z,40.80
2018-11-29T00:22:45.152Z,39.55
2018-11-29T00:25:15.371Z,42.67
2018-11-29T00:27:44.319Z,45.23
2018-11-29T00:30:19.799Z,41.88
2018-11-29T00:32:48.610Z,46.50
2018-11-29T00:35:17.930Z,46.55
2018-11-29T00:37:46.700Z,35.70
2018-11-29T00:40:18.388Z,41.00
2018-11-29T00:42:47.087Z,45.75
2018-11-29T00:45:17.579Z,43.13
2018-11-29T00:47:46.899Z,45.65
2018-11-29T00:50:16.240Z,42.43
2018-11-29T00:52:45.716Z,43.48
2018-11-29T00:55:16.216Z,43.02
2018-11-29T00:57:44.961Z,47.83
2018-11-29T01:00:18.392Z,44.75
2018-11-29T01:02:47.101Z,40.78
2018-11-29T01:05:15.853Z,48.08
2018-11-29T01:07:44.612Z,51.30
2018-11-29T01:10:14.953Z,44.98
2018-11-29T01:12:43.912Z,39.30
2018-11-29T01:15:14.274Z,47.88
2018-11-29T01:17:43.229Z,45.20
2018-11-29T01:20:12.887Z,48.87
2018-11-29T01:22:41.658Z,44.20
2018-11-29T01:25:11.375Z,45.80
2018-11-29T01:27:40.228Z,45.05
2018-11-29T01:30:11.708Z,48.52
2018-11-29T01:32:40.447Z,51.15
2018-11-29T01:35:10.376Z,43.13
2018-11-29T01:37:39.199Z,41.30
2018-11-29T01:40:10.963Z,46.23
2018-11-29T01:42:39.691Z,44.27
2018-11-29T01:45:08.419Z,46.80
2018-11-29T01:47:37.124Z,45.78
2018-11-29T01:50:05.905Z,47.75
2018-11-29T01:52:34.642Z,49.77
2018-11-29T01:55:03.351Z,44.67
2018-11-29T01:57:32.284Z,54.20
2018-11-29T02:00:00.969Z,45.58
2018-11-29T02:02:29.688Z,41.15
2018-11-29T02:04:58.412Z,51.35
2018-11-29T02:07:27.132Z,49.95
2018-11-29T02:10:00.890Z,41.77
2018-11-29T02:12:29.580Z,39.38
2018-11-29T02:14:58.320Z,47.10
2018-11-29T02:17:27.015Z,41.50
2018-11-29T02:19:55.745Z,46.00
2018-11-29T02:22:24.447Z,44.73
2018-11-29T02:24:53.207Z,43.05
2018-11-29T02:27:21.916Z,49.60
2018-11-29T02:29:50.650Z,38.60
2018-11-29T02:32:19.351Z,42.05
2018-11-29T02:34:48.061Z,42.48
2018-11-29T02:37:16.776Z,43.70
2018-11-29T02:39:45.520Z,57.25
2018-11-29T02:42:14.249Z,38.92
2018-11-29T02:44:42.965Z,47.30
2018-11-29T02:47:11.659Z,48.10
2018-11-29T02:49:40.348Z,47.90
2018-11-29T02:52:09.024Z,51.58
2018-11-29T02:54:37.720Z,52.08
2018-11-29T02:57:06.460Z,46.23
2018-11-29T02:59:35.189Z,49.55
2018-11-29T03:02:03.984Z,56.70
2018-11-29T03:04:32.684Z,50.75
2018-11-29T03:07:01.379Z,46.80
2018-11-29T03:09:30.123Z,48.87
2018-11-29T03:11:58.817Z,50.03
2018-11-29T03:14:27.523Z,51.28
2018-11-29T03:16:56.227Z,53.35
2018-11-29T03:19:24.951Z,56.92
2018-11-29T03:21:53.657Z,44.50
2018-11-29T03:24:22.368Z,52.88
2018-11-29T03:26:51.099Z,56.42
2018-11-29T03:29:19.815Z,42.08
2018-11-29T03:31:48.591Z,49.90
2018-11-29T03:34:17.320Z,51.85
2018-11-29T03:36:46.031Z,52.03
2018-11-29T03:39:14.751Z,51.18
2018-11-29T03:41:43.460Z,48.02
2018-11-29T03:44:12.167Z,46.02
2018-11-29T03:46:40.944Z,47.75
2018-11-29T03:49:09.680Z,47.08
2018-11-29T03:51:38.369Z,55.10
2018-11-29T03:54:07.147Z,51.30
2018-11-29T03:56:35.858Z,48.33
2018-11-29T03:59:04.570Z,52.15
2018-11-29T04:01:33.274Z,55.55
2018-11-29T04:04:01.984Z,47.93
2018-11-29T04:06:30.687Z,53.23
2018-11-29T04:08:59.456Z,44.90
2018-11-29T04:11:28.161Z,52.70
2018-11-29T04:13:56.905Z,55.98
2018-11-29T04:16:25.626Z,47.55
2018-11-29T04:18:54.376Z,47.00
2018-11-29T04:21:23.095Z,40.23
2018-11-29T04:23:51.815Z,50.12
2018-11-29T04:26:20.530Z,43.80
2018-11-29T04:28:49.271Z,53.68
2018-11-29T04:31:17.964Z,51.40
2018-11-29T04:33:46.690Z,58.08
2018-11-29T04:36:15.436Z,48.20
2018-11-29T04:38:44.156Z,52.08
2018-11-29T04:41:12.896Z,38.55
2018-11-29T04:43:41.670Z,48.00
2018-11-29T04:47:14.868Z,50.15
2018-11-29T04:49:43.785Z,46.35
2018-11-29T04:52:12.710Z,47.62
2018-11-29T04:54:41.440Z,40.50
2018-11-29T04:57:10.177Z,43.28
2018-11-29T04:59:38.884Z,41.23
2018-11-29T05:02:07.653Z,45.05
2018-11-29T05:04:36.385Z,40.98
2018-11-29T05:07:05.119Z,35.92
2018-11-29T05:09:33.832Z,35.28
2018-11-29T05:12:02.556Z,44.05
2018-11-29T05:14:31.231Z,44.73
2018-11-29T05:17:00.016Z,46.50
2018-11-29T05:19:28.747Z,40.90
2018-11-29T05:21:57.458Z,44.42
2018-11-29T05:24:26.177Z,50.63
2018-11-29T05:26:55.046Z,42.58
2018-11-29T05:29:23.782Z,43.23
2018-11-29T05:31:52.562Z,43.05
2018-11-29T05:34:21.296Z,38.90
2018-11-29T05:36:50.015Z,44.10
2018-11-29T05:39:18.724Z,38.90
2018-11-29T05:41:47.442Z,46.50
2018-11-29T05:44:16.152Z,35.33
2018-11-29T05:46:44.869Z,31.87
2018-11-29T05:49:13.576Z,40.28
2018-11-29T05:51:42.299Z,37.70
2018-11-29T05:54:12.905Z,36.60
2018-11-29T05:56:41.623Z,34.05
2018-11-29T05:59:10.321Z,31.90
2018-11-29T06:01:41.056Z,39.42
2018-11-29T06:04:09.880Z,39.40
2018-11-29T06:06:38.613Z,37.08
2018-11-29T06:09:10.612Z,35.00
2018-11-29T06:11:39.867Z,33.00
2018-11-29T06:14:08.930Z,36.88
2018-11-29T06:16:38.278Z,33.33
2018-11-29T06:19:08.193Z,32.85
2018-11-29T06:21:36.923Z,32.67
2018-11-29T06:24:05.900Z,26.55
2018-11-29T06:26:34.623Z,32.05
2018-11-29T06:29:03.365Z,34.90
2018-11-29T06:31:32.134Z,25.55
2018-11-29T06:34:00.874Z,45.10
2018-11-29T06:36:29.615Z,26.85
2018-11-29T06:38:58.351Z,33.67
2018-11-29T06:41:27.171Z,32.55
2018-11-29T06:43:55.901Z,26.75
2018-11-29T06:46:25.713Z,30.55
2018-11-29T06:48:53.395Z,33.35
2018-11-29T06:51:22.115Z,29.07
2018-11-29T06:53:55.944Z,29.82
2018-11-29T06:56:24.679Z,23.98
2018-11-29T06:58:53.417Z,25.23
2018-11-29T07:01:22.180Z,31.48
2018-11-29T07:03:50.985Z,25.17
2018-11-29T07:06:19.728Z,26.85
2018-11-29T07:08:48.448Z,26.20
2018-11-29T07:11:17.164Z,19.17
2018-11-29T07:13:45.875Z,23.42
2018-11-29T07:16:14.617Z,34.23
2018-11-29T07:18:43.352Z,23.47
2018-11-29T07:21:23.080Z,25.62
2018-11-29T07:23:51.778Z,33.80
2018-11-29T07:26:20.550Z,20.27
2018-11-29T07:28:49.275Z,21.65
2018-11-29T07:31:18.022Z,31.85
2018-11-29T07:33:46.752Z,24.52
2018-11-29T07:36:15.509Z,21.73
2018-11-29T07:38:44.233Z,25.57
2018-11-29T07:41:12.963Z,26.42
2018-11-29T07:43:41.705Z,29.95
2018-11-29T07:46:10.413Z,22.80
2018-11-29T07:48:39.117Z,23.70
2018-11-29T07:51:07.885Z,24.05
2018-11-29T07:53:36.636Z,21.48
2018-11-29T07:56:05.467Z,20.88
2018-11-29T07:58:34.152Z,25.70
2018-11-29T08:01:02.906Z,23.80
2018-11-29T08:03:31.596Z,29.82
2018-11-29T08:06:00.317Z,28.90
2018-11-29T08:08:29.019Z,27.95
2018-11-29T08:10:57.740Z,23.75
2018-11-29T08:13:26.448Z,27.07
2018-11-29T08:15:55.165Z,24.40
2018-11-29T08:18:23.891Z,34.70
2018-11-29T08:20:52.699Z,29.85
2018-11-29T08:23:21.387Z,33.73
2018-11-29T08:25:50.119Z,24.00
2018-11-29T08:28:18.810Z,26.60
2018-11-29T08:30:47.541Z,26.93
2018-11-29T08:33:16.243Z,32.28
2018-11-29T08:35:45.023Z,33.63
2018-11-29T08:38:13.729Z,36.55
2018-11-29T08:40:42.455Z,44.98
2018-11-29T08:43:11.156Z,29.20
2018-11-29T08:45:39.864Z,32.05
2018-11-29T08:48:08.560Z,33.75
2018-11-29T08:50:37.345Z,28.45
2018-11-29T08:53:11.844Z,28.17
2018-11-29T08:55:40.609Z,36.58
2018-11-29T08:58:09.315Z,31.90
2018-11-29T09:00:38.033Z,33.75
2018-11-29T09:03:06.784Z,32.42
2018-11-29T09:05:35.584Z,36.03
2018-11-29T09:08:04.328Z,35.85
2018-11-29T09:10:33.041Z,34.25
2018-11-29T09:13:01.761Z,26.68
2018-11-29T09:15:30.487Z,27.20
2018-11-29T09:17:59.239Z,29.72
2018-11-29T09:20:27.960Z,34.10
2018-11-29T09:22:56.677Z,30.62
2018-11-29T09:25:25.413Z,27.20
2018-11-29T09:27:54.104Z,36.38
2018-11-29T09:30:23.703Z,41.65
2018-11-29T09:32:54.207Z,30.37
2018-11-29T09:35:23.037Z,37.95
2018-11-29T09:37:51.672Z,30.77
2018-11-29T09:40:20.488Z,34.23
2018-11-29T09:42:49.244Z,30.62
2018-11-29T09:45:19.644Z,29.00
2018-11-29T09:47:49.483Z,29.70
2018-11-29T09:50:18.546Z,26.27
2018-11-29T09:52:47.234Z,31.10
2018-11-29T09:55:16.643Z,25.77
2018-11-29T09:57:45.753Z,28.47
2018-11-29T10:00:27.113Z,27.33
2018-11-29T10:03:08.028Z,29.13
2018-11-29T10:05:36.896Z,29.80
2018-11-29T10:08:11.877Z,33.17
2018-11-29T10:10:35.044Z,25.40
2018-11-29T10:13:03.712Z,28.43
2018-11-29T10:15:32.372Z,25.90
2018-11-29T10:18:01.085Z,27.40
2018-11-29T10:20:29.743Z,29.60
2018-11-29T10:22:58.396Z,22.40
2018-11-29T10:25:27.085Z,24.70
2018-11-29T10:28:01.333Z,31.77
2018-11-29T10:30:33.731Z,28.43
2018-11-29T10:33:02.368Z,31.53
2018-11-29T10:35:31.519Z,22.83
2018-11-29T10:38:00.128Z,23.70
2018-11-29T10:40:28.759Z,21.27
2018-11-29T10:42:57.448Z,17.17
2018-11-29T10:45:26.084Z,20.23
2018-11-29T10:47:55.522Z,29.13
2018-11-29T10:50:24.194Z,17.47
2018-11-29T10:52:52.812Z,23.30
2018-11-29T10:55:21.474Z,19.10
2018-11-29T11:00:35.159Z,19.00
2018-11-29T11:03:12.399Z,23.20
2018-11-29T11:05:41.188Z,45.23
2018-11-29T11:08:10.239Z,22.97
2018-11-29T11:10:39.952Z,20.93
2018-11-29T11:13:08.888Z,20.83
2018-11-29T11:15:38.208Z,26.93
2018-11-29T11:18:08.333Z,20.70
2018-11-29T11:20:37.286Z,26.87
2018-11-29T11:23:06.105Z,19.90
2018-11-29T11:25:34.868Z,16.33
2018-11-29T11:28:04.204Z,19.13
2018-11-29T11:30:33.105Z,28.27
2018-11-29T11:33:01.833Z,19.97
2018-11-29T11:35:31.652Z,18.03
2018-11-29T11:38:00.384Z,21.33
2018-11-29T11:40:29.307Z,24.70
2018-11-29T11:42:57.966Z,18.47
2018-11-29T11:45:26.754Z,21.97
2018-11-29T11:47:55.416Z,23.30
2018-11-29T11:50:25.108Z,23.07
2018-11-29T11:52:55.006Z,22.07
2018-11-29T11:55:30.079Z,20.23
2018-11-29T11:57:52.735Z,24.73
2018-11-29T12:00:25.797Z,21.27
2018-11-29T12:03:00.606Z,14.93
2018-11-29T12:05:29.401Z,17.43
2018-11-29T12:07:58.080Z,15.87
2018-11-29T12:10:26.893Z,21.07
2018-11-29T12:12:55.564Z,19.90
2018-11-29T12:15:24.300Z,18.17
2018-11-29T12:17:53.176Z,21.10
2018-11-29T12:20:21.924Z,17.40
2018-11-29T12:22:50.588Z,13.73
2018-11-29T12:25:20.433Z,20.20
2018-11-29T12:27:49.316Z,21.97
2018-11-29T12:30:29.121Z,17.77
2018-11-29T12:33:00.130Z,20.63
2018-11-29T12:35:28.929Z,21.03
2018-11-29T12:37:57.708Z,16.83
2018-11-29T12:40:26.443Z,14.73
2018-11-29T12:42:55.172Z,17.40
2018-11-29T12:45:23.870Z,16.53
2018-11-29T12:47:52.622Z,17.80
2018-11-29T12:50:22.860Z,24.07
2018-11-29T12:52:51.522Z,17.10
2018-11-29T12:55:21.261Z,23.43
2018-11-29T12:58:04.417Z,15.70
2018-11-29T13:00:19.895Z,16.83
2018-11-29T13:02:56.688Z,19.27
2018-11-29T13:05:26.147Z,17.50
2018-11-29T13:07:55.064Z,17.57
2018-11-29T13:10:25.786Z,16.27
2018-11-29T13:12:54.968Z,13.37
2018-11-29T13:15:35.351Z,25.03
2018-11-29T13:18:07.712Z,15.43
2018-11-29T13:20:38.419Z,12.30
2018-11-29T13:23:07.520Z,12.33
2018-11-29T13:25:39.300Z,27.20
2018-11-29T13:28:08.560Z,19.47
2018-11-29T13:30:38.235Z,16.17
2018-11-29T13:33:10.768Z,15.63
2018-11-29T13:35:39.465Z,31.33
2018-11-29T13:38:10.917Z,18.73
2018-11-29T13:40:40.129Z,18.10
2018-11-29T13:43:08.807Z,16.03
2018-11-29T13:45:37.649Z,14.33
2018-11-29T13:48:07.541Z,17.77
2018-11-29T13:50:36.248Z,16.43
2018-11-29T13:53:05.776Z,16.57
2018-11-29T13:55:35.098Z,16.37
2018-11-29T13:58:03.928Z,16.70
2018-11-29T14:00:32.680Z,15.20
2018-11-29T14:03:03.548Z,15.80
2018-11-29T14:05:32.225Z,22.03
2018-11-29T14:08:01.275Z,21.93
2018-11-29T14:10:29.975Z,32.83
2018-11-29T14:12:58.655Z,19.03
2018-11-29T14:15:28.552Z,16.87
2018-11-29T14:17:57.265Z,18.10
2018-11-29T14:20:25.955Z,19.10
2018-11-29T14:22:54.846Z,26.03
2018-11-29T14:25:23.636Z,27.67
2018-11-29T14:27:54.621Z,23.53
2018-11-29T14:30:28.363Z,21.60
2018-11-29T14:32:58.376Z,27.53
2018-11-29T14:35:27.216Z,18.20
2018-11-29T14:37:55.874Z,27.63
2018-11-29T14:40:25.568Z,24.90
2018-11-29T14:42:54.277Z,15.60
2018-11-29T14:45:26.127Z,18.37
2018-11-29T14:47:55.249Z,28.83
2018-11-29T14:50:28.984Z,21.27
2018-11-29T14:52:57.664Z,23.10
2018-11-29T14:55:26.429Z,23.17
2018-11-29T14:57:55.256Z,16.67
2018-11-29T15:00:23.901Z,27.53
2018-11-29T15:02:52.880Z,17.43
2018-11-29T15:05:28.950Z,19.70
2018-11-29T15:07:57.611Z,20.90
2018-11-29T15:10:26.299Z,30.03
2018-11-29T15:12:55.131Z,24.13
2018-11-29T15:15:23.765Z,21.60
2018-11-29T15:17:53.601Z,14.97
2018-11-29T15:20:23.789Z,17.80
2018-11-29T15:22:52.528Z,18.90
2018-11-29T15:25:21.285Z,12.30
2018-11-29T15:27:49.992Z,20.53
2018-11-29T15:30:20.557Z,18.97
2018-11-29T15:32:48.944Z,17.33
2018-11-29T15:35:17.719Z,16.10
2018-11-29T15:37:46.529Z,15.73
2018-11-29T15:40:16.389Z,10.80
2018-11-29T15:42:45.172Z,16.00
2018-11-29T15:45:20.086Z,13.63
2018-11-29T15:47:48.932Z,17.03
2018-11-29T15:50:17.861Z,22.70
2018-11-29T15:52:46.690Z,16.20
2018-11-29T15:55:23.413Z,10.27
2018-11-29T15:57:54.198Z,22.10
2018-11-29T16:00:26.058Z,17.30
2018-11-29T16:02:55.807Z,31.47
2018-11-29T16:05:24.531Z,15.57
2018-11-29T16:07:53.348Z,13.90
2018-11-29T16:10:23.985Z,11.80
2018-11-29T16:12:52.775Z,15.20
2018-11-29T16:15:22.067Z,19.80
2018-11-29T16:17:51.985Z,17.50
2018-11-29T16:20:22.187Z,16.67
2018-11-29T16:22:51.062Z,14.73
2018-11-29T16:25:19.844Z,13.90
2018-11-29T16:27:48.618Z,21.43
2018-11-29T16:30:23.839Z,22.50
2018-11-29T16:32:52.990Z,17.57
2018-11-29T16:35:21.778Z,15.53
2018-11-29T16:37:50.580Z,12.53
2018-11-29T16:40:19.381Z,14.97
2018-11-29T16:42:48.076Z,11.43
2018-11-29T16:45:16.759Z,11.73
2018-11-29T16:47:45.430Z,13.43
2018-11-29T16:50:15.375Z,16.27
2018-11-29T16:52:44.132Z,13.00
2018-11-29T16:55:13.343Z,16.40
2018-11-29T16:57:45.876Z,14.47
2018-11-29T17:00:20.384Z,24.93
2018-11-29T17:02:49.211Z,13.80
2018-11-29T17:05:18.034Z,12.33
2018-11-29T17:07:46.816Z,17.17
2018-11-29T17:10:18.901Z,15.60
2018-11-29T17:12:51.647Z,13.27
2018-11-29T17:15:20.642Z,12.53
2018-11-29T17:17:49.308Z,16.10
2018-11-29T17:20:19.084Z,11.17
2018-11-29T17:22:49.084Z,19.13
2018-11-29T17:25:17.899Z,17.00
2018-11-29T17:27:46.564Z,12.57
2018-11-29T17:30:16.448Z,15.03
2018-11-29T17:32:45.118Z,15.87
2018-11-29T17:35:13.860Z,17.07
2018-11-29T17:37:42.712Z,23.73
2018-11-29T17:40:13.788Z,12.58
2018-11-29T17:42:42.534Z,14.60
2018-11-29T17:45:14.652Z,14.97
2018-11-29T17:47:44.127Z,15.90
2018-11-29T17:50:45.195Z,15.63
2018-11-29T17:53:13.925Z,10.27
2018-11-29T17:55:43.672Z,14.93
2018-11-29T17:58:13.204Z,13.90
2018-11-29T18:00:42.703Z,20.80
2018-11-29T18:03:12.056Z,19.27
2018-11-29T18:05:40.876Z,14.27
2018-11-29T18:08:09.692Z,19.05
2018-11-29T18:10:40.096Z,13.43
2018-11-29T18:13:17.265Z,23.07
2018-11-29T18:15:46.064Z,16.32
2018-11-29T18:18:14.840Z,18.87
2018-11-29T18:20:43.618Z,16.90
2018-11-29T18:23:12.392Z,15.40
2018-11-29T18:25:41.145Z,20.62
2018-11-29T18:28:10.817Z,19.48
2018-11-29T18:30:39.613Z,18.45
2018-11-29T18:33:08.471Z,22.15
2018-11-29T18:35:37.302Z,17.80
2018-11-29T18:38:07.238Z,16.17
2018-11-29T18:40:36.518Z,18.23
2018-11-29T18:43:07.144Z,16.57
2018-11-29T18:45:35.938Z,15.25
2018-11-29T18:48:04.747Z,20.00
2018-11-29T18:50:33.446Z,21.50
2018-11-29T18:53:02.176Z,16.45
2018-11-29T18:55:30.997Z,27.10
2018-11-29T18:57:59.652Z,20.53
2018-11-29T19:00:33.887Z,17.73
2018-11-29T19:03:02.562Z,19.20
2018-11-29T19:05:31.341Z,17.80
2018-11-29T19:08:00.109Z,22.17
2018-11-29T19:10:28.813Z,19.00
2018-11-29T19:13:09.414Z,24.32
2018-11-29T19:15:38.181Z,19.20
2018-11-29T19:18:10.502Z,25.63
2018-11-29T19:20:37.435Z,21.17
2018-11-29T19:23:06.440Z,18.93
2018-11-29T19:25:35.294Z,24.12
2018-11-29T19:28:03.976Z,35.73
2018-11-29T19:30:33.076Z,26.55
2018-11-29T19:33:33.723Z,20.77
2018-11-29T19:36:02.648Z,22.62
2018-11-29T19:38:31.484Z,25.12
2018-11-29T19:41:00.235Z,23.73
2018-11-29T19:43:29.059Z,28.52
2018-11-29T19:45:57.909Z,20.30
2018-11-29T19:48:26.648Z,22.73
2018-11-29T19:50:55.468Z,19.87
2018-11-29T19:53:26.873Z,24.80
2018-11-29T19:56:01.115Z,25.68
2018-11-29T19:58:29.886Z,27.48
2018-11-29T20:00:58.696Z,42.78
2018-11-29T20:03:27.393Z,23.97
2018-11-29T20:05:56.200Z,30.95
2018-11-29T20:08:24.944Z,28.55
2018-11-29T20:10:53.799Z,18.73
2018-11-29T20:13:22.432Z,58.10
2018-11-29T20:15:52.826Z,37.23
2018-11-29T20:18:21.652Z,45.48
2018-11-29T20:20:50.717Z,26.60
2018-11-29T20:23:19.571Z,22.30
2018-11-29T20:25:48.536Z,19.45
2018-11-29T20:28:17.263Z,22.67
2018-11-29T20:30:46.086Z,22.55
2018-11-29T20:33:14.910Z,27.20
2018-11-29T20:35:43.697Z,25.10
2018-11-29T20:38:12.448Z,22.98
2018-11-29T20:40:42.708Z,28.20
2018-11-29T20:43:11.479Z,23.42
2018-11-29T20:45:53.907Z,21.80
2018-11-29T20:48:27.836Z,18.60
2018-11-29T20:50:58.037Z,22.37
2018-11-29T20:53:34.589Z,31.87
2018-11-29T20:56:04.219Z,25.85
2018-11-29T20:58:32.984Z,24.63
2018-11-29T21:01:01.906Z,26.87
2018-11-29T21:03:30.674Z,23.87
2018-11-29T21:06:00.060Z,25.72
2018-11-29T21:08:28.862Z,25.08
2018-11-29T21:10:57.644Z,23.15
2018-11-29T21:13:26.368Z,25.02
2018-11-29T21:15:55.128Z,31.48
2018-11-29T21:18:23.948Z,19.27
2018-11-29T21:20:52.976Z,25.52
2018-11-29T21:23:21.715Z,21.95
2018-11-29T21:25:50.463Z,20.45
2018-11-29T21:28:19.283Z,24.52
2018-11-29T21:30:48.137Z,20.10
2018-11-29T21:33:16.846Z,28.27
2018-11-29T21:35:45.847Z,23.20
2018-11-29T21:38:16.776Z,24.10
2018-11-29T21:40:53.328Z,23.67
2018-11-29T21:43:22.084Z,26.37
2018-11-29T21:45:51.019Z,29.45
2018-11-29T21:48:19.837Z,26.33
2018-11-29T21:50:48.831Z,23.52
2018-11-29T21:53:17.580Z,28.52
2018-11-29T21:55:46.407Z,29.30
2018-11-29T21:58:15.200Z,28.27
2018-11-29T22:00:43.971Z,29.10
2018-11-29T22:03:12.757Z,30.90
2018-11-29T22:05:41.517Z,27.80
2018-11-29T22:08:10.426Z,29.80
2018-11-29T22:10:39.323Z,30.90
2018-11-29T22:13:08.076Z,29.92
2018-11-29T22:15:36.942Z,30.80
2018-11-29T22:18:13.813Z,22.70
2018-11-29T22:20:43.009Z,29.48
2018-11-29T22:23:11.776Z,21.27
2018-11-29T22:25:41.263Z,28.65
2018-11-29T22:28:10.228Z,38.75
2018-11-29T22:30:39.087Z,23.77
2018-11-29T22:33:08.059Z,31.33
2018-11-29T22:35:37.052Z,29.05
2018-11-29T22:38:06.904Z,24.27
2018-11-29T22:40:35.772Z,25.88
2018-11-29T22:43:05.525Z,25.88
2018-11-29T22:45:34.306Z,20.75
2018-11-29T22:48:03.301Z,24.57
2018-11-29T22:50:32.076Z,26.53
2018-11-29T22:53:00.960Z,29.85
2018-11-29T22:55:29.748Z,32.60
2018-11-29T22:57:58.512Z,30.45
2018-11-29T23:00:31.882Z,25.05
2018-11-29T23:03:00.969Z,32.45
2018-11-29T23:05:29.812Z,24.70
2018-11-29T23:07:58.538Z,33.75
2018-11-29T23:10:27.858Z,25.00
2018-11-29T23:12:56.263Z,24.02
2018-11-29T23:15:25.161Z,28.25
2018-11-29T23:17:54.047Z,26.48
2018-11-29T23:20:23.056Z,23.55
2018-11-29T23:22:51.830Z,29.98
2018-11-29T23:25:20.628Z,31.77
2018-11-29T23:27:49.345Z,24.35
2018-11-29T23:30:18.489Z,26.20
2018-11-29T23:32:47.287Z,30.40
2018-11-29T23:35:16.423Z,27.58
2018-11-29T23:37:45.173Z,23.77
2018-11-29T23:40:17.375Z,24.23
2018-11-29T23:42:46.626Z,25.77
2018-11-29T23:45:15.612Z,30.32
2018-11-29T23:47:44.483Z,25.90
2018-11-29T23:50:14.932Z,24.80
2018-11-29T23:52:43.860Z,30.37
2018-11-29T23:55:17.035Z,27.22
2018-11-29T23:57:45.824Z,25.90
